sensor_id;sensor_type;location;lat;lon;timestamp;P1;durP1;ratioP1;P2;durP2;ratioP2
39098;SDS011;24844;52.380;7.018;2023-02-28T00:00:19;23.67;;;15.90;;
39098;SDS011;24844;52.380;7.018;2023-02-28T00:02:45;23.58;;;14.52;;
39098;SDS011;24844;52.380;7.018;2023-02-28T00:05:12;23.85;;;15.50;;
39098;SDS011;24844;52.380;7.018;2023-02-28T00:07:39;25.88;;;16.48;;
39098;SDS011;24844;52.380;7.018;2023-02-28T00:10:06;28.17;;;18.00;;
39098;SDS011;24844;52.380;7.018;2023-02-28T00:12:36;26.15;;;16.98;;
39098;SDS011;24844;52.380;7.018;2023-02-28T00:15:02;23.95;;;15.88;;
39098;SDS011;24844;52.380;7.018;2023-02-28T00:17:30;23.80;;;15.60;;
39098;SDS011;24844;52.380;7.018;2023-02-28T00:19:56;25.45;;;14.82;;
39098;SDS011;24844;52.380;7.018;2023-02-28T00:22:30;23.90;;;14.73;;
39098;SDS011;24844;52.380;7.018;2023-02-28T00:24:55;22.98;;;14.40;;
39098;SDS011;24844;52.380;7.018;2023-02-28T00:27:21;23.70;;;15.30;;
39098;SDS011;24844;52.380;7.018;2023-02-28T00:29:47;23.67;;;15.10;;
39098;SDS011;24844;52.380;7.018;2023-02-28T00:32:12;24.05;;;14.80;;
39098;SDS011;24844;52.380;7.018;2023-02-28T00:34:38;23.25;;;15.32;;
39098;SDS011;24844;52.380;7.018;2023-02-28T00:37:05;20.60;;;14.20;;
39098;SDS011;24844;52.380;7.018;2023-02-28T00:39:32;21.45;;;13.68;;
39098;SDS011;24844;52.380;7.018;2023-02-28T00:42:02;20.75;;;13.55;;
39098;SDS011;24844;52.380;7.018;2023-02-28T00:44:28;19.95;;;12.77;;
39098;SDS011;24844;52.380;7.018;2023-02-28T00:46:55;20.60;;;14.27;;
39098;SDS011;24844;52.380;7.018;2023-02-28T00:49:21;23.63;;;14.20;;
39098;SDS011;24844;52.380;7.018;2023-02-28T00:51:47;18.67;;;12.82;;
39098;SDS011;24844;52.380;7.018;2023-02-28T00:54:13;19.65;;;13.48;;
39098;SDS011;24844;52.380;7.018;2023-02-28T00:56:39;22.00;;;12.48;;
39098;SDS011;24844;52.380;7.018;2023-02-28T00:59:04;17.48;;;12.45;;
39098;SDS011;24844;52.380;7.018;2023-02-28T01:01:30;18.30;;;12.38;;
39098;SDS011;24844;52.380;7.018;2023-02-28T01:03:56;16.75;;;11.57;;
39098;SDS011;24844;52.380;7.018;2023-02-28T01:06:21;19.90;;;11.95;;
39098;SDS011;24844;52.380;7.018;2023-02-28T01:08:47;19.67;;;12.27;;
39098;SDS011;24844;52.380;7.018;2023-02-28T01:11:14;17.15;;;12.00;;
39098;SDS011;24844;52.380;7.018;2023-02-28T01:13:41;10.65;;;8.25;;
39098;SDS011;24844;52.380;7.018;2023-02-28T01:16:07;14.43;;;10.60;;
39098;SDS011;24844;52.380;7.018;2023-02-28T01:18:33;15.35;;;11.07;;
39098;SDS011;24844;52.380;7.018;2023-02-28T01:21:02;17.58;;;11.45;;
39098;SDS011;24844;52.380;7.018;2023-02-28T01:23:29;15.95;;;10.63;;
39098;SDS011;24844;52.380;7.018;2023-02-28T01:25:55;17.98;;;11.57;;
39098;SDS011;24844;52.380;7.018;2023-02-28T01:28:21;16.48;;;10.52;;
39098;SDS011;24844;52.380;7.018;2023-02-28T01:30:47;15.45;;;9.65;;
39098;SDS011;24844;52.380;7.018;2023-02-28T01:33:16;15.32;;;9.60;;
39098;SDS011;24844;52.380;7.018;2023-02-28T01:35:42;13.80;;;9.80;;
39098;SDS011;24844;52.380;7.018;2023-02-28T01:38:07;13.90;;;9.95;;
39098;SDS011;24844;52.380;7.018;2023-02-28T01:40:33;17.92;;;9.85;;
39098;SDS011;24844;52.380;7.018;2023-02-28T01:42:58;13.52;;;9.38;;
39098;SDS011;24844;52.380;7.018;2023-02-28T01:45:25;13.98;;;10.55;;
39098;SDS011;24844;52.380;7.018;2023-02-28T01:47:54;14.23;;;9.75;;
39098;SDS011;24844;52.380;7.018;2023-02-28T01:50:25;13.02;;;9.18;;
39098;SDS011;24844;52.380;7.018;2023-02-28T01:52:55;15.85;;;9.88;;
39098;SDS011;24844;52.380;7.018;2023-02-28T01:55:25;12.38;;;8.73;;
39098;SDS011;24844;52.380;7.018;2023-02-28T01:57:54;13.60;;;9.07;;
39098;SDS011;24844;52.380;7.018;2023-02-28T02:00:24;12.68;;;8.68;;
39098;SDS011;24844;52.380;7.018;2023-02-28T02:02:55;10.75;;;8.38;;
39098;SDS011;24844;52.380;7.018;2023-02-28T02:05:27;13.30;;;8.95;;
39098;SDS011;24844;52.380;7.018;2023-02-28T02:07:56;11.90;;;8.70;;
39098;SDS011;24844;52.380;7.018;2023-02-28T02:10:29;14.32;;;9.27;;
39098;SDS011;24844;52.380;7.018;2023-02-28T02:24:00;14.88;;;9.10;;
39098;SDS011;24844;52.380;7.018;2023-02-28T02:33:04;14.77;;;8.90;;
39098;SDS011;24844;52.380;7.018;2023-02-28T02:35:47;13.25;;;8.63;;
39098;SDS011;24844;52.380;7.018;2023-02-28T02:39:23;17.63;;;8.88;;
39098;SDS011;24844;52.380;7.018;2023-02-28T02:44:00;13.40;;;9.55;;
39098;SDS011;24844;52.380;7.018;2023-02-28T02:46:32;12.80;;;9.20;;
39098;SDS011;24844;52.380;7.018;2023-02-28T02:54:30;12.73;;;8.90;;
39098;SDS011;24844;52.380;7.018;2023-02-28T02:56:53;10.50;;;7.67;;
39098;SDS011;24844;52.380;7.018;2023-02-28T02:59:22;14.98;;;8.48;;
39098;SDS011;24844;52.380;7.018;2023-02-28T03:01:50;11.80;;;8.40;;
39098;SDS011;24844;52.380;7.018;2023-02-28T03:04:20;15.05;;;9.18;;
39098;SDS011;24844;52.380;7.018;2023-02-28T03:06:47;12.20;;;9.17;;
39098;SDS011;24844;52.380;7.018;2023-02-28T03:09:13;13.38;;;8.70;;
39098;SDS011;24844;52.380;7.018;2023-02-28T03:11:39;12.13;;;8.65;;
39098;SDS011;24844;52.380;7.018;2023-02-28T03:16:49;11.88;;;7.65;;
39098;SDS011;24844;52.380;7.018;2023-02-28T03:19:49;10.23;;;7.63;;
39098;SDS011;24844;52.380;7.018;2023-02-28T03:28:17;11.18;;;7.78;;
39098;SDS011;24844;52.380;7.018;2023-02-28T03:31:19;11.85;;;7.35;;
39098;SDS011;24844;52.380;7.018;2023-02-28T03:34:08;12.35;;;7.90;;
39098;SDS011;24844;52.380;7.018;2023-02-28T03:36:38;9.95;;;6.88;;
39098;SDS011;24844;52.380;7.018;2023-02-28T03:39:11;13.02;;;7.35;;
39098;SDS011;24844;52.380;7.018;2023-02-28T03:42:01;14.23;;;7.78;;
39098;SDS011;24844;52.380;7.018;2023-02-28T03:44:32;13.32;;;8.45;;
39098;SDS011;24844;52.380;7.018;2023-02-28T03:47:08;13.32;;;8.80;;
39098;SDS011;24844;52.380;7.018;2023-02-28T03:49:43;12.45;;;7.93;;
39098;SDS011;24844;52.380;7.018;2023-02-28T03:52:12;12.70;;;8.23;;
39098;SDS011;24844;52.380;7.018;2023-02-28T03:54:47;10.45;;;7.50;;
39098;SDS011;24844;52.380;7.018;2023-02-28T03:58:01;11.82;;;8.00;;
39098;SDS011;24844;52.380;7.018;2023-02-28T04:00:09;9.23;;;7.35;;
39098;SDS011;24844;52.380;7.018;2023-02-28T04:02:39;13.93;;;8.68;;
39098;SDS011;24844;52.380;7.018;2023-02-28T04:05:05;10.52;;;8.10;;
39098;SDS011;24844;52.380;7.018;2023-02-28T04:07:32;10.82;;;8.25;;
39098;SDS011;24844;52.380;7.018;2023-02-28T04:09:57;10.70;;;8.73;;
39098;SDS011;24844;52.380;7.018;2023-02-28T04:12:24;13.52;;;8.00;;
39098;SDS011;24844;52.380;7.018;2023-02-28T04:14:50;11.70;;;8.18;;
39098;SDS011;24844;52.380;7.018;2023-02-28T04:17:16;17.35;;;8.82;;
39098;SDS011;24844;52.380;7.018;2023-02-28T04:19:41;13.18;;;8.35;;
39098;SDS011;24844;52.380;7.018;2023-02-28T04:22:08;14.05;;;8.98;;
39098;SDS011;24844;52.380;7.018;2023-02-28T04:24:34;14.25;;;9.18;;
39098;SDS011;24844;52.380;7.018;2023-02-28T04:27:00;11.73;;;8.40;;
39098;SDS011;24844;52.380;7.018;2023-02-28T04:29:32;12.98;;;8.13;;
39098;SDS011;24844;52.380;7.018;2023-02-28T04:31:58;14.52;;;7.88;;
39098;SDS011;24844;52.380;7.018;2023-02-28T04:34:25;12.80;;;7.90;;
39098;SDS011;24844;52.380;7.018;2023-02-28T04:36:52;12.35;;;7.25;;
39098;SDS011;24844;52.380;7.018;2023-02-28T04:39:21;12.23;;;7.60;;
39098;SDS011;24844;52.380;7.018;2023-02-28T04:41:48;14.77;;;7.95;;
39098;SDS011;24844;52.380;7.018;2023-02-28T04:44:14;13.30;;;7.95;;
39098;SDS011;24844;52.380;7.018;2023-02-28T04:46:40;9.10;;;7.28;;
39098;SDS011;24844;52.380;7.018;2023-02-28T04:49:06;13.68;;;8.07;;
39098;SDS011;24844;52.380;7.018;2023-02-28T04:51:33;12.50;;;7.82;;
39098;SDS011;24844;52.380;7.018;2023-02-28T04:53:58;12.18;;;7.22;;
39098;SDS011;24844;52.380;7.018;2023-02-28T04:56:24;12.00;;;7.47;;
39098;SDS011;24844;52.380;7.018;2023-02-28T04:58:50;10.48;;;7.65;;
39098;SDS011;24844;52.380;7.018;2023-02-28T05:01:22;9.77;;;6.60;;
39098;SDS011;24844;52.380;7.018;2023-02-28T05:03:53;11.55;;;8.35;;
39098;SDS011;24844;52.380;7.018;2023-02-28T05:06:20;11.98;;;8.63;;
39098;SDS011;24844;52.380;7.018;2023-02-28T05:08:48;11.63;;;7.72;;
39098;SDS011;24844;52.380;7.018;2023-02-28T05:11:18;12.20;;;8.15;;
39098;SDS011;24844;52.380;7.018;2023-02-28T05:13:50;13.25;;;9.18;;
39098;SDS011;24844;52.380;7.018;2023-02-28T05:16:16;11.25;;;7.93;;
39098;SDS011;24844;52.380;7.018;2023-02-28T05:18:43;12.32;;;8.80;;
39098;SDS011;24844;52.380;7.018;2023-02-28T05:24:03;12.73;;;8.15;;
39098;SDS011;24844;52.380;7.018;2023-02-28T05:26:31;10.73;;;7.65;;
39098;SDS011;24844;52.380;7.018;2023-02-28T05:29:00;10.05;;;6.57;;
39098;SDS011;24844;52.380;7.018;2023-02-28T05:31:25;10.65;;;8.18;;
39098;SDS011;24844;52.380;7.018;2023-02-28T05:33:51;11.18;;;7.18;;
39098;SDS011;24844;52.380;7.018;2023-02-28T05:36:17;12.50;;;8.88;;
39098;SDS011;24844;52.380;7.018;2023-02-28T05:38:42;20.17;;;9.43;;
39098;SDS011;24844;52.380;7.018;2023-02-28T05:41:10;13.93;;;9.40;;
39098;SDS011;24844;52.380;7.018;2023-02-28T05:43:36;12.60;;;9.73;;
39098;SDS011;24844;52.380;7.018;2023-02-28T05:46:03;9.60;;;8.13;;
39098;SDS011;24844;52.380;7.018;2023-02-28T05:48:30;15.90;;;11.32;;
39098;SDS011;24844;52.380;7.018;2023-02-28T05:50:57;14.63;;;9.57;;
39098;SDS011;24844;52.380;7.018;2023-02-28T05:53:22;14.25;;;9.90;;
39098;SDS011;24844;52.380;7.018;2023-02-28T05:55:48;13.18;;;9.93;;
39098;SDS011;24844;52.380;7.018;2023-02-28T05:58:14;15.07;;;9.80;;
39098;SDS011;24844;52.380;7.018;2023-02-28T06:00:39;14.07;;;10.18;;
39098;SDS011;24844;52.380;7.018;2023-02-28T06:03:05;15.05;;;9.88;;
39098;SDS011;24844;52.380;7.018;2023-02-28T06:05:30;14.02;;;10.05;;
39098;SDS011;24844;52.380;7.018;2023-02-28T06:07:56;13.70;;;10.00;;
39098;SDS011;24844;52.380;7.018;2023-02-28T06:10:21;13.38;;;9.45;;
39098;SDS011;24844;52.380;7.018;2023-02-28T06:12:47;14.82;;;9.98;;
39098;SDS011;24844;52.380;7.018;2023-02-28T06:15:13;14.60;;;10.10;;
39098;SDS011;24844;52.380;7.018;2023-02-28T06:17:40;16.80;;;10.00;;
39098;SDS011;24844;52.380;7.018;2023-02-28T06:20:08;13.10;;;9.75;;
39098;SDS011;24844;52.380;7.018;2023-02-28T06:25:01;14.38;;;9.75;;
39098;SDS011;24844;52.380;7.018;2023-02-28T06:27:28;14.52;;;9.50;;
39098;SDS011;24844;52.380;7.018;2023-02-28T06:29:54;12.50;;;9.43;;
39098;SDS011;24844;52.380;7.018;2023-02-28T06:32:20;14.30;;;9.98;;
39098;SDS011;24844;52.380;7.018;2023-02-28T06:34:46;12.77;;;8.77;;
39098;SDS011;24844;52.380;7.018;2023-02-28T06:37:12;11.32;;;7.93;;
39098;SDS011;24844;52.380;7.018;2023-02-28T06:39:38;12.00;;;8.15;;
39098;SDS011;24844;52.380;7.018;2023-02-28T06:42:04;11.80;;;7.57;;
39098;SDS011;24844;52.380;7.018;2023-02-28T06:44:29;11.27;;;8.32;;
39098;SDS011;24844;52.380;7.018;2023-02-28T06:47:00;12.52;;;7.03;;
39098;SDS011;24844;52.380;7.018;2023-02-28T06:49:28;14.20;;;8.18;;
39098;SDS011;24844;52.380;7.018;2023-02-28T06:51:54;13.38;;;8.35;;
39098;SDS011;24844;52.380;7.018;2023-02-28T06:54:20;11.20;;;8.48;;
39098;SDS011;24844;52.380;7.018;2023-02-28T06:56:45;12.60;;;8.27;;
39098;SDS011;24844;52.380;7.018;2023-02-28T06:59:12;13.40;;;8.30;;
39098;SDS011;24844;52.380;7.018;2023-02-28T07:01:38;11.45;;;8.52;;
39098;SDS011;24844;52.380;7.018;2023-02-28T07:04:04;13.48;;;8.98;;
39098;SDS011;24844;52.380;7.018;2023-02-28T07:06:30;12.48;;;8.18;;
39098;SDS011;24844;52.380;7.018;2023-02-28T07:08:56;10.50;;;7.68;;
39098;SDS011;24844;52.380;7.018;2023-02-28T07:11:22;10.80;;;7.63;;
39098;SDS011;24844;52.380;7.018;2023-02-28T07:13:50;10.02;;;6.70;;
39098;SDS011;24844;52.380;7.018;2023-02-28T07:16:17;8.60;;;6.90;;
39098;SDS011;24844;52.380;7.018;2023-02-28T07:18:43;10.90;;;6.60;;
39098;SDS011;24844;52.380;7.018;2023-02-28T07:21:09;14.55;;;6.70;;
39098;SDS011;24844;52.380;7.018;2023-02-28T07:23:35;9.75;;;6.07;;
39098;SDS011;24844;52.380;7.018;2023-02-28T07:26:03;9.90;;;7.07;;
39098;SDS011;24844;52.380;7.018;2023-02-28T07:28:29;11.48;;;7.00;;
39098;SDS011;24844;52.380;7.018;2023-02-28T07:30:54;9.52;;;6.18;;
39098;SDS011;24844;52.380;7.018;2023-02-28T07:33:20;14.23;;;7.47;;
39098;SDS011;24844;52.380;7.018;2023-02-28T07:35:46;7.85;;;5.90;;
39098;SDS011;24844;52.380;7.018;2023-02-28T07:38:11;9.43;;;5.88;;
39098;SDS011;24844;52.380;7.018;2023-02-28T07:40:38;7.38;;;6.32;;
39098;SDS011;24844;52.380;7.018;2023-02-28T07:43:04;8.63;;;5.35;;
39098;SDS011;24844;52.380;7.018;2023-02-28T07:45:30;10.07;;;5.65;;
39098;SDS011;24844;52.380;7.018;2023-02-28T07:47:59;10.00;;;5.80;;
39098;SDS011;24844;52.380;7.018;2023-02-28T07:50:24;7.82;;;5.60;;
39098;SDS011;24844;52.380;7.018;2023-02-28T07:52:50;6.80;;;5.22;;
39098;SDS011;24844;52.380;7.018;2023-02-28T07:55:16;9.48;;;4.72;;
39098;SDS011;24844;52.380;7.018;2023-02-28T07:57:42;8.07;;;4.28;;
39098;SDS011;24844;52.380;7.018;2023-02-28T08:00:09;10.27;;;4.97;;
39098;SDS011;24844;52.380;7.018;2023-02-28T08:02:35;7.72;;;3.90;;
39098;SDS011;24844;52.380;7.018;2023-02-28T08:05:01;5.80;;;3.60;;
39098;SDS011;24844;52.380;7.018;2023-02-28T08:07:27;5.85;;;3.88;;
39098;SDS011;24844;52.380;7.018;2023-02-28T08:09:53;6.03;;;3.10;;
39098;SDS011;24844;52.380;7.018;2023-02-28T08:12:18;6.65;;;3.20;;
39098;SDS011;24844;52.380;7.018;2023-02-28T08:14:44;5.00;;;3.08;;
39098;SDS011;24844;52.380;7.018;2023-02-28T08:17:10;5.47;;;3.13;;
39098;SDS011;24844;52.380;7.018;2023-02-28T08:19:36;3.90;;;2.60;;
39098;SDS011;24844;52.380;7.018;2023-02-28T08:22:01;4.35;;;2.50;;
39098;SDS011;24844;52.380;7.018;2023-02-28T08:24:27;4.20;;;2.30;;
39098;SDS011;24844;52.380;7.018;2023-02-28T08:26:53;7.00;;;3.03;;
39098;SDS011;24844;52.380;7.018;2023-02-28T08:29:18;5.97;;;1.85;;
39098;SDS011;24844;52.380;7.018;2023-02-28T08:31:44;3.08;;;1.77;;
39098;SDS011;24844;52.380;7.018;2023-02-28T08:34:11;3.42;;;1.75;;
39098;SDS011;24844;52.380;7.018;2023-02-28T08:36:39;5.50;;;1.80;;
39098;SDS011;24844;52.380;7.018;2023-02-28T08:39:04;1.50;;;1.35;;
39098;SDS011;24844;52.380;7.018;2023-02-28T08:41:31;4.57;;;1.70;;
39098;SDS011;24844;52.380;7.018;2023-02-28T08:43:58;2.60;;;1.75;;
39098;SDS011;24844;52.380;7.018;2023-02-28T08:46:23;1.77;;;1.40;;
39098;SDS011;24844;52.380;7.018;2023-02-28T08:48:55;3.17;;;1.40;;
39098;SDS011;24844;52.380;7.018;2023-02-28T08:51:25;4.80;;;1.30;;
39098;SDS011;24844;52.380;7.018;2023-02-28T08:53:54;1.95;;;1.00;;
39098;SDS011;24844;52.380;7.018;2023-02-28T08:56:23;2.63;;;1.75;;
39098;SDS011;24844;52.380;7.018;2023-02-28T08:58:49;4.50;;;1.40;;
39098;SDS011;24844;52.380;7.018;2023-02-28T09:01:16;3.22;;;1.67;;
39098;SDS011;24844;52.380;7.018;2023-02-28T09:03:45;3.10;;;1.60;;
39098;SDS011;24844;52.380;7.018;2023-02-28T09:06:12;2.25;;;1.25;;
39098;SDS011;24844;52.380;7.018;2023-02-28T09:08:39;2.05;;;1.40;;
39098;SDS011;24844;52.380;7.018;2023-02-28T09:11:05;2.22;;;1.30;;
39098;SDS011;24844;52.380;7.018;2023-02-28T09:13:31;2.78;;;1.20;;
39098;SDS011;24844;52.380;7.018;2023-02-28T09:15:58;2.35;;;1.20;;
39098;SDS011;24844;52.380;7.018;2023-02-28T09:18:25;4.68;;;1.83;;
39098;SDS011;24844;52.380;7.018;2023-02-28T09:20:51;1.65;;;1.30;;
39098;SDS011;24844;52.380;7.018;2023-02-28T09:23:17;1.88;;;1.35;;
39098;SDS011;24844;52.380;7.018;2023-02-28T09:26:00;2.45;;;1.17;;
39098;SDS011;24844;52.380;7.018;2023-02-28T09:28:26;2.10;;;1.30;;
39098;SDS011;24844;52.380;7.018;2023-02-28T09:30:53;2.65;;;1.30;;
39098;SDS011;24844;52.380;7.018;2023-02-28T09:33:19;2.13;;;1.38;;
39098;SDS011;24844;52.380;7.018;2023-02-28T09:35:46;2.65;;;1.35;;
39098;SDS011;24844;52.380;7.018;2023-02-28T09:38:13;3.10;;;1.23;;
39098;SDS011;24844;52.380;7.018;2023-02-28T09:43:15;2.65;;;1.38;;
39098;SDS011;24844;52.380;7.018;2023-02-28T09:45:43;2.88;;;1.10;;
39098;SDS011;24844;52.380;7.018;2023-02-28T09:48:24;3.13;;;1.33;;
39098;SDS011;24844;52.380;7.018;2023-02-28T09:50:55;2.10;;;1.20;;
39098;SDS011;24844;52.380;7.018;2023-02-28T09:53:43;1.20;;;0.95;;
39098;SDS011;24844;52.380;7.018;2023-02-28T09:56:18;1.73;;;0.90;;
39098;SDS011;24844;52.380;7.018;2023-02-28T10:01:43;1.27;;;1.00;;
39098;SDS011;24844;52.380;7.018;2023-02-28T10:04:33;1.77;;;1.15;;
39098;SDS011;24844;52.380;7.018;2023-02-28T10:07:11;2.60;;;1.25;;
39098;SDS011;24844;52.380;7.018;2023-02-28T10:09:47;2.53;;;1.23;;
39098;SDS011;24844;52.380;7.018;2023-02-28T10:12:18;1.65;;;1.10;;
39098;SDS011;24844;52.380;7.018;2023-02-28T10:14:45;1.23;;;0.98;;
39098;SDS011;24844;52.380;7.018;2023-02-28T10:17:15;2.15;;;1.10;;
39098;SDS011;24844;52.380;7.018;2023-02-28T10:19:56;1.33;;;0.90;;
39098;SDS011;24844;52.380;7.018;2023-02-28T10:25:26;1.45;;;0.90;;
39098;SDS011;24844;52.380;7.018;2023-02-28T10:27:53;2.28;;;1.20;;
39098;SDS011;24844;52.380;7.018;2023-02-28T10:30:23;1.42;;;1.00;;
39098;SDS011;24844;52.380;7.018;2023-02-28T10:32:50;3.58;;;1.10;;
39098;SDS011;24844;52.380;7.018;2023-02-28T10:35:22;3.13;;;1.10;;
39098;SDS011;24844;52.380;7.018;2023-02-28T10:37:50;2.65;;;1.50;;
39098;SDS011;24844;52.380;7.018;2023-02-28T10:42:57;2.75;;;1.08;;
39098;SDS011;24844;52.380;7.018;2023-02-28T10:45:23;2.17;;;1.05;;
39098;SDS011;24844;52.380;7.018;2023-02-28T10:47:56;1.55;;;0.80;;
39098;SDS011;24844;52.380;7.018;2023-02-28T10:50:37;2.10;;;1.00;;
39098;SDS011;24844;52.380;7.018;2023-02-28T10:56:04;3.33;;;1.48;;
39098;SDS011;24844;52.380;7.018;2023-02-28T10:58:48;1.92;;;1.00;;
39098;SDS011;24844;52.380;7.018;2023-02-28T11:06:47;3.20;;;1.25;;
39098;SDS011;24844;52.380;7.018;2023-02-28T11:09:29;3.30;;;1.40;;
39098;SDS011;24844;52.380;7.018;2023-02-28T11:12:00;3.35;;;1.20;;
39098;SDS011;24844;52.380;7.018;2023-02-28T11:14:33;1.45;;;1.00;;
39098;SDS011;24844;52.380;7.018;2023-02-28T11:17:14;1.90;;;1.25;;
39098;SDS011;24844;52.380;7.018;2023-02-28T11:19:45;2.15;;;1.15;;
39098;SDS011;24844;52.380;7.018;2023-02-28T11:22:16;1.70;;;1.20;;
39098;SDS011;24844;52.380;7.018;2023-02-28T11:24:46;1.50;;;0.90;;
39098;SDS011;24844;52.380;7.018;2023-02-28T11:29:56;3.75;;;1.20;;
39098;SDS011;24844;52.380;7.018;2023-02-28T11:32:23;1.33;;;0.80;;
39098;SDS011;24844;52.380;7.018;2023-02-28T11:35:03;1.70;;;1.08;;
39098;SDS011;24844;52.380;7.018;2023-02-28T11:37:44;2.67;;;1.35;;
39098;SDS011;24844;52.380;7.018;2023-02-28T11:40:18;1.10;;;1.00;;
39098;SDS011;24844;52.380;7.018;2023-02-28T11:50:53;1.88;;;0.90;;
39098;SDS011;24844;52.380;7.018;2023-02-28T12:01:33;2.45;;;1.30;;
39098;SDS011;24844;52.380;7.018;2023-02-28T12:04:13;5.45;;;1.40;;
39098;SDS011;24844;52.380;7.018;2023-02-28T12:12:23;2.47;;;1.40;;
39098;SDS011;24844;52.380;7.018;2023-02-28T12:15:05;2.60;;;1.40;;
39098;SDS011;24844;52.380;7.018;2023-02-28T12:23:14;2.58;;;1.35;;
39098;SDS011;24844;52.380;7.018;2023-02-28T12:25:54;3.92;;;1.48;;
39098;SDS011;24844;52.380;7.018;2023-02-28T12:28:28;2.17;;;1.50;;
39098;SDS011;24844;52.380;7.018;2023-02-28T12:31:04;1.80;;;1.33;;
39098;SDS011;24844;52.380;7.018;2023-02-28T12:33:45;2.78;;;1.40;;
39098;SDS011;24844;52.380;7.018;2023-02-28T12:36:16;3.17;;;1.10;;
39098;SDS011;24844;52.380;7.018;2023-02-28T12:38:53;1.85;;;1.20;;
39098;SDS011;24844;52.380;7.018;2023-02-28T12:44:32;2.20;;;0.82;;
39098;SDS011;24844;52.380;7.018;2023-02-28T12:47:11;1.92;;;1.20;;
39098;SDS011;24844;52.380;7.018;2023-02-28T12:49:48;2.30;;;1.50;;
39098;SDS011;24844;52.380;7.018;2023-02-28T12:52:20;2.80;;;0.90;;
39098;SDS011;24844;52.380;7.018;2023-02-28T12:55:05;1.42;;;1.13;;
39098;SDS011;24844;52.380;7.018;2023-02-28T13:00:25;2.22;;;1.27;;
39098;SDS011;24844;52.380;7.018;2023-02-28T13:06:04;2.45;;;1.38;;
39098;SDS011;24844;52.380;7.018;2023-02-28T13:11:29;3.13;;;1.30;;
39098;SDS011;24844;52.380;7.018;2023-02-28T13:14:16;3.95;;;1.20;;
39098;SDS011;24844;52.380;7.018;2023-02-28T13:16:50;1.55;;;0.85;;
39098;SDS011;24844;52.380;7.018;2023-02-28T13:19:23;2.95;;;1.20;;
39098;SDS011;24844;52.380;7.018;2023-02-28T13:21:51;2.63;;;1.30;;
39098;SDS011;24844;52.380;7.018;2023-02-28T13:27:24;2.15;;;1.27;;
39098;SDS011;24844;52.380;7.018;2023-02-28T13:38:48;2.30;;;1.20;;
39098;SDS011;24844;52.380;7.018;2023-02-28T13:44:17;2.30;;;1.30;;
39098;SDS011;24844;52.380;7.018;2023-02-28T13:54:30;3.15;;;2.33;;
39098;SDS011;24844;52.380;7.018;2023-02-28T14:00:19;1.55;;;1.13;;
39098;SDS011;24844;52.380;7.018;2023-02-28T14:06:07;1.30;;;0.80;;
39098;SDS011;24844;52.380;7.018;2023-02-28T14:08:45;1.58;;;1.13;;
39098;SDS011;24844;52.380;7.018;2023-02-28T14:11:25;1.58;;;1.08;;
39098;SDS011;24844;52.380;7.018;2023-02-28T14:13:56;2.17;;;1.10;;
39098;SDS011;24844;52.380;7.018;2023-02-28T14:16:26;2.25;;;1.17;;
39098;SDS011;24844;52.380;7.018;2023-02-28T14:19:12;4.10;;;1.60;;
39098;SDS011;24844;52.380;7.018;2023-02-28T14:21:43;3.00;;;1.50;;
39098;SDS011;24844;52.380;7.018;2023-02-28T14:27:07;1.83;;;1.00;;
39098;SDS011;24844;52.380;7.018;2023-02-28T14:38:35;2.30;;;1.23;;
39098;SDS011;24844;52.380;7.018;2023-02-28T14:41:03;1.80;;;1.00;;
39098;SDS011;24844;52.380;7.018;2023-02-28T14:43:31;2.45;;;1.20;;
39098;SDS011;24844;52.380;7.018;2023-02-28T14:46:01;1.30;;;0.95;;
39098;SDS011;24844;52.380;7.018;2023-02-28T14:48:29;4.93;;;1.25;;
39098;SDS011;24844;52.380;7.018;2023-02-28T14:50:59;4.07;;;1.50;;
39098;SDS011;24844;52.380;7.018;2023-02-28T14:53:27;2.95;;;1.20;;
39098;SDS011;24844;52.380;7.018;2023-02-28T14:55:55;3.30;;;1.40;;
39098;SDS011;24844;52.380;7.018;2023-02-28T14:58:28;1.70;;;1.10;;
39098;SDS011;24844;52.380;7.018;2023-02-28T15:00:56;1.45;;;1.10;;
39098;SDS011;24844;52.380;7.018;2023-02-28T15:03:28;1.73;;;1.20;;
39098;SDS011;24844;52.380;7.018;2023-02-28T15:06:06;3.40;;;1.35;;
39098;SDS011;24844;52.380;7.018;2023-02-28T15:08:43;2.95;;;1.17;;
39098;SDS011;24844;52.380;7.018;2023-02-28T15:13:40;2.17;;;1.38;;
39098;SDS011;24844;52.380;7.018;2023-02-28T15:16:19;2.25;;;1.35;;
39098;SDS011;24844;52.380;7.018;2023-02-28T15:19:13;1.73;;;1.30;;
39098;SDS011;24844;52.380;7.018;2023-02-28T15:21:44;1.92;;;1.30;;
39098;SDS011;24844;52.380;7.018;2023-02-28T15:24:17;2.83;;;1.38;;
39098;SDS011;24844;52.380;7.018;2023-02-28T15:26:50;1.80;;;1.30;;
39098;SDS011;24844;52.380;7.018;2023-02-28T15:29:20;1.95;;;1.25;;
39098;SDS011;24844;52.380;7.018;2023-02-28T15:31:55;5.78;;;1.58;;
39098;SDS011;24844;52.380;7.018;2023-02-28T15:34:33;2.58;;;1.25;;
39098;SDS011;24844;52.380;7.018;2023-02-28T15:39:57;1.92;;;1.20;;
39098;SDS011;24844;52.380;7.018;2023-02-28T15:42:30;2.35;;;1.45;;
39098;SDS011;24844;52.380;7.018;2023-02-28T15:44:56;3.55;;;1.55;;
39098;SDS011;24844;52.380;7.018;2023-02-28T15:47:25;3.58;;;1.25;;
39098;SDS011;24844;52.380;7.018;2023-02-28T15:49:54;1.75;;;1.30;;
39098;SDS011;24844;52.380;7.018;2023-02-28T15:52:40;2.25;;;1.50;;
39098;SDS011;24844;52.380;7.018;2023-02-28T15:55:10;2.90;;;1.40;;
39098;SDS011;24844;52.380;7.018;2023-02-28T15:57:48;3.92;;;1.60;;
39098;SDS011;24844;52.380;7.018;2023-02-28T16:00:19;2.67;;;1.75;;
39098;SDS011;24844;52.380;7.018;2023-02-28T16:02:49;1.95;;;1.50;;
39098;SDS011;24844;52.380;7.018;2023-02-28T16:07:52;2.83;;;1.42;;
39098;SDS011;24844;52.380;7.018;2023-02-28T16:10:18;2.55;;;1.70;;
39098;SDS011;24844;52.380;7.018;2023-02-28T16:12:44;2.03;;;1.25;;
39098;SDS011;24844;52.380;7.018;2023-02-28T16:15:19;2.08;;;1.65;;
39098;SDS011;24844;52.380;7.018;2023-02-28T16:17:46;4.78;;;1.60;;
39098;SDS011;24844;52.380;7.018;2023-02-28T16:20:30;3.65;;;1.40;;
39098;SDS011;24844;52.380;7.018;2023-02-28T16:22:56;4.40;;;1.90;;
39098;SDS011;24844;52.380;7.018;2023-02-28T16:25:29;1.88;;;1.52;;
39098;SDS011;24844;52.380;7.018;2023-02-28T16:28:00;1.70;;;1.23;;
39098;SDS011;24844;52.380;7.018;2023-02-28T16:30:26;2.53;;;1.48;;
39098;SDS011;24844;52.380;7.018;2023-02-28T16:32:56;1.55;;;1.30;;
39098;SDS011;24844;52.380;7.018;2023-02-28T16:35:22;2.75;;;1.63;;
39098;SDS011;24844;52.380;7.018;2023-02-28T16:37:50;2.70;;;1.83;;
39098;SDS011;24844;52.380;7.018;2023-02-28T16:40:16;1.77;;;1.40;;
39098;SDS011;24844;52.380;7.018;2023-02-28T16:42:46;2.03;;;1.60;;
39098;SDS011;24844;52.380;7.018;2023-02-28T16:45:17;2.20;;;1.85;;
39098;SDS011;24844;52.380;7.018;2023-02-28T16:47:45;3.85;;;1.67;;
39098;SDS011;24844;52.380;7.018;2023-02-28T16:50:32;4.78;;;2.15;;
39098;SDS011;24844;52.380;7.018;2023-02-28T16:52:57;3.25;;;1.70;;
39098;SDS011;24844;52.380;7.018;2023-02-28T16:55:24;2.53;;;1.40;;
39098;SDS011;24844;52.380;7.018;2023-02-28T16:57:52;2.45;;;1.55;;
39098;SDS011;24844;52.380;7.018;2023-02-28T17:00:19;2.75;;;1.73;;
39098;SDS011;24844;52.380;7.018;2023-02-28T17:02:46;8.13;;;1.67;;
39098;SDS011;24844;52.380;7.018;2023-02-28T17:05:12;2.03;;;1.80;;
39098;SDS011;24844;52.380;7.018;2023-02-28T17:07:39;2.90;;;1.70;;
39098;SDS011;24844;52.380;7.018;2023-02-28T17:10:16;1.75;;;1.42;;
39098;SDS011;24844;52.380;7.018;2023-02-28T17:12:47;3.55;;;1.70;;
39098;SDS011;24844;52.380;7.018;2023-02-28T17:15:13;3.28;;;1.90;;
39098;SDS011;24844;52.380;7.018;2023-02-28T17:17:40;3.17;;;1.92;;
39098;SDS011;24844;52.380;7.018;2023-02-28T17:20:09;2.60;;;1.70;;
39098;SDS011;24844;52.380;7.018;2023-02-28T17:22:47;4.45;;;2.13;;
39098;SDS011;24844;52.380;7.018;2023-02-28T17:25:13;2.83;;;2.20;;